sensor_id;sensor_type;location;lat;lon;timestamp;P1;durP1;ratioP1;P2;durP2;ratioP2
66272;SDS011;58450;52.150;4.466;2023-07-20T00:00:34;0.60;;;0.60;;
66272;SDS011;58450;52.150;4.466;2023-07-20T00:03:11;1.08;;;0.68;;
66272;SDS011;58450;52.150;4.466;2023-07-20T00:05:44;0.60;;;0.60;;
66272;SDS011;58450;52.150;4.466;2023-07-20T00:08:12;0.85;;;0.60;;
66272;SDS011;58450;52.150;4.466;2023-07-20T00:10:40;0.50;;;0.50;;
66272;SDS011;58450;52.150;4.466;2023-07-20T00:13:08;1.02;;;0.60;;
66272;SDS011;58450;52.150;4.466;2023-07-20T00:15:35;0.93;;;0.50;;
66272;SDS011;58450;52.150;4.466;2023-07-20T00:18:03;0.70;;;0.60;;
66272;SDS011;58450;52.150;4.466;2023-07-20T00:20:31;0.50;;;0.50;;
66272;SDS011;58450;52.150;4.466;2023-07-20T00:23:01;1.38;;;0.52;;
66272;SDS011;58450;52.150;4.466;2023-07-20T00:25:28;1.27;;;0.40;;
66272;SDS011;58450;52.150;4.466;2023-07-20T00:27:56;1.25;;;0.40;;
66272;SDS011;58450;52.150;4.466;2023-07-20T00:30:24;0.80;;;0.50;;
66272;SDS011;58450;52.150;4.466;2023-07-20T00:32:52;0.40;;;0.40;;
66272;SDS011;58450;52.150;4.466;2023-07-20T00:35:19;0.50;;;0.47;;
66272;SDS011;58450;52.150;4.466;2023-07-20T00:37:47;0.75;;;0.50;;
66272;SDS011;58450;52.150;4.466;2023-07-20T00:40:16;0.60;;;0.60;;
66272;SDS011;58450;52.150;4.466;2023-07-20T00:42:44;0.70;;;0.50;;
66272;SDS011;58450;52.150;4.466;2023-07-20T00:45:12;0.65;;;0.60;;
66272;SDS011;58450;52.150;4.466;2023-07-20T00:47:40;0.50;;;0.50;;
66272;SDS011;58450;52.150;4.466;2023-07-20T00:50:08;0.43;;;0.43;;
66272;SDS011;58450;52.150;4.466;2023-07-20T00:52:37;0.55;;;0.47;;
66272;SDS011;58450;52.150;4.466;2023-07-20T00:55:06;0.70;;;0.50;;
66272;SDS011;58450;52.150;4.466;2023-07-20T00:57:37;0.73;;;0.50;;
66272;SDS011;58450;52.150;4.466;2023-07-20T01:00:06;1.30;;;0.60;;
66272;SDS011;58450;52.150;4.466;2023-07-20T01:02:35;0.73;;;0.50;;
66272;SDS011;58450;52.150;4.466;2023-07-20T01:05:03;0.82;;;0.70;;
66272;SDS011;58450;52.150;4.466;2023-07-20T01:07:34;0.45;;;0.40;;
66272;SDS011;58450;52.150;4.466;2023-07-20T01:10:06;0.50;;;0.50;;
66272;SDS011;58450;52.150;4.466;2023-07-20T01:12:47;1.10;;;0.40;;
66272;SDS011;58450;52.150;4.466;2023-07-20T01:15:18;0.77;;;0.45;;
66272;SDS011;58450;52.150;4.466;2023-07-20T01:17:46;1.52;;;0.60;;
66272;SDS011;58450;52.150;4.466;2023-07-20T01:20:14;0.40;;;0.40;;
66272;SDS011;58450;52.150;4.466;2023-07-20T01:22:49;0.50;;;0.50;;
66272;SDS011;58450;52.150;4.466;2023-07-20T01:25:58;1.10;;;0.50;;
66272;SDS011;58450;52.150;4.466;2023-07-20T01:31:59;1.45;;;0.50;;
66272;SDS011;58450;52.150;4.466;2023-07-20T01:34:32;0.52;;;0.50;;
66272;SDS011;58450;52.150;4.466;2023-07-20T01:37:03;1.58;;;0.60;;
66272;SDS011;58450;52.150;4.466;2023-07-20T01:39:33;0.45;;;0.45;;
66272;SDS011;58450;52.150;4.466;2023-07-20T01:42:03;0.52;;;0.50;;
66272;SDS011;58450;52.150;4.466;2023-07-20T01:44:31;0.70;;;0.40;;
66272;SDS011;58450;52.150;4.466;2023-07-20T01:47:00;0.57;;;0.50;;
66272;SDS011;58450;52.150;4.466;2023-07-20T01:49:28;1.02;;;0.57;;
66272;SDS011;58450;52.150;4.466;2023-07-20T01:51:56;0.40;;;0.40;;
66272;SDS011;58450;52.150;4.466;2023-07-20T01:54:24;0.82;;;0.60;;
66272;SDS011;58450;52.150;4.466;2023-07-20T01:56:51;0.40;;;0.40;;
66272;SDS011;58450;52.150;4.466;2023-07-20T01:59:19;1.95;;;0.75;;
66272;SDS011;58450;52.150;4.466;2023-07-20T02:01:47;2.35;;;0.47;;
66272;SDS011;58450;52.150;4.466;2023-07-20T02:04:16;1.02;;;0.50;;
66272;SDS011;58450;52.150;4.466;2023-07-20T02:06:43;0.50;;;0.50;;
66272;SDS011;58450;52.150;4.466;2023-07-20T02:09:11;0.77;;;0.50;;
66272;SDS011;58450;52.150;4.466;2023-07-20T02:11:38;0.93;;;0.50;;
66272;SDS011;58450;52.150;4.466;2023-07-20T02:14:06;0.88;;;0.50;;
66272;SDS011;58450;52.150;4.466;2023-07-20T02:16:34;0.68;;;0.55;;
66272;SDS011;58450;52.150;4.466;2023-07-20T02:19:01;0.85;;;0.70;;
66272;SDS011;58450;52.150;4.466;2023-07-20T02:21:31;1.38;;;0.60;;
66272;SDS011;58450;52.150;4.466;2023-07-20T02:23:59;1.05;;;0.60;;
66272;SDS011;58450;52.150;4.466;2023-07-20T02:26:26;0.50;;;0.50;;
66272;SDS011;58450;52.150;4.466;2023-07-20T02:28:54;0.60;;;0.50;;
66272;SDS011;58450;52.150;4.466;2023-07-20T02:31:22;1.20;;;0.60;;
66272;SDS011;58450;52.150;4.466;2023-07-20T02:33:50;1.10;;;0.73;;
66272;SDS011;58450;52.150;4.466;2023-07-20T02:36:18;0.70;;;0.70;;
66272;SDS011;58450;52.150;4.466;2023-07-20T02:38:47;0.77;;;0.60;;
66272;SDS011;58450;52.150;4.466;2023-07-20T02:41:14;1.50;;;0.70;;
66272;SDS011;58450;52.150;4.466;2023-07-20T02:43:42;0.60;;;0.60;;
66272;SDS011;58450;52.150;4.466;2023-07-20T02:46:09;0.80;;;0.65;;
66272;SDS011;58450;52.150;4.466;2023-07-20T02:48:37;0.70;;;0.70;;
66272;SDS011;58450;52.150;4.466;2023-07-20T02:51:05;0.77;;;0.60;;
66272;SDS011;58450;52.150;4.466;2023-07-20T02:53:33;0.73;;;0.63;;
66272;SDS011;58450;52.150;4.466;2023-07-20T02:56:03;0.93;;;0.60;;
66272;SDS011;58450;52.150;4.466;2023-07-20T02:58:30;0.88;;;0.70;;
66272;SDS011;58450;52.150;4.466;2023-07-20T03:01:02;0.65;;;0.65;;
66272;SDS011;58450;52.150;4.466;2023-07-20T03:03:30;0.70;;;0.70;;
66272;SDS011;58450;52.150;4.466;2023-07-20T03:05:58;1.00;;;0.80;;
66272;SDS011;58450;52.150;4.466;2023-07-20T03:08:26;0.80;;;0.70;;
66272;SDS011;58450;52.150;4.466;2023-07-20T03:10:54;0.85;;;0.70;;
66272;SDS011;58450;52.150;4.466;2023-07-20T03:13:23;2.13;;;1.00;;
66272;SDS011;58450;52.150;4.466;2023-07-20T03:15:51;1.45;;;0.90;;
66272;SDS011;58450;52.150;4.466;2023-07-20T03:18:19;2.15;;;0.80;;
66272;SDS011;58450;52.150;4.466;2023-07-20T03:20:47;1.45;;;0.90;;
66272;SDS011;58450;52.150;4.466;2023-07-20T03:23:14;1.10;;;0.80;;
66272;SDS011;58450;52.150;4.466;2023-07-20T03:25:42;1.15;;;0.80;;
66272;SDS011;58450;52.150;4.466;2023-07-20T03:28:10;1.88;;;0.80;;
66272;SDS011;58450;52.150;4.466;2023-07-20T03:30:39;1.20;;;0.88;;
66272;SDS011;58450;52.150;4.466;2023-07-20T03:33:06;0.80;;;0.70;;
66272;SDS011;58450;52.150;4.466;2023-07-20T03:35:34;0.90;;;0.70;;
66272;SDS011;58450;52.150;4.466;2023-07-20T03:38:02;1.33;;;0.80;;
66272;SDS011;58450;52.150;4.466;2023-07-20T03:40:30;0.80;;;0.80;;
66272;SDS011;58450;52.150;4.466;2023-07-20T03:42:57;1.00;;;0.80;;
66272;SDS011;58450;52.150;4.466;2023-07-20T03:45:25;1.25;;;0.90;;
66272;SDS011;58450;52.150;4.466;2023-07-20T03:47:54;1.00;;;0.85;;
66272;SDS011;58450;52.150;4.466;2023-07-20T03:50:22;2.05;;;0.85;;
66272;SDS011;58450;52.150;4.466;2023-07-20T03:52:49;0.90;;;0.90;;
66272;SDS011;58450;52.150;4.466;2023-07-20T03:55:18;0.70;;;0.70;;
66272;SDS011;58450;52.150;4.466;2023-07-20T03:57:45;0.80;;;0.80;;
66272;SDS011;58450;52.150;4.466;2023-07-20T04:00:16;1.48;;;0.73;;
66272;SDS011;58450;52.150;4.466;2023-07-20T04:02:44;1.00;;;0.90;;
66272;SDS011;58450;52.150;4.466;2023-07-20T04:05:13;1.08;;;0.77;;
66272;SDS011;58450;52.150;4.466;2023-07-20T04:07:41;0.80;;;0.80;;
66272;SDS011;58450;52.150;4.466;2023-07-20T04:10:09;1.00;;;0.90;;
66272;SDS011;58450;52.150;4.466;2023-07-20T04:12:37;2.25;;;1.00;;
66272;SDS011;58450;52.150;4.466;2023-07-20T04:15:05;0.73;;;0.70;;
66272;SDS011;58450;52.150;4.466;2023-07-20T04:17:34;0.80;;;0.80;;
66272;SDS011;58450;52.150;4.466;2023-07-20T04:20:02;1.05;;;0.80;;
66272;SDS011;58450;52.150;4.466;2023-07-20T04:22:32;0.60;;;0.60;;
66272;SDS011;58450;52.150;4.466;2023-07-20T04:25:00;1.00;;;0.90;;
66272;SDS011;58450;52.150;4.466;2023-07-20T04:27:28;1.42;;;0.90;;
66272;SDS011;58450;52.150;4.466;2023-07-20T04:29:55;0.90;;;0.70;;
66272;SDS011;58450;52.150;4.466;2023-07-20T04:32:25;0.98;;;0.88;;
66272;SDS011;58450;52.150;4.466;2023-07-20T04:34:53;2.00;;;0.90;;
66272;SDS011;58450;52.150;4.466;2023-07-20T04:37:21;1.40;;;0.80;;
66272;SDS011;58450;52.150;4.466;2023-07-20T04:39:50;3.17;;;1.10;;
66272;SDS011;58450;52.150;4.466;2023-07-20T04:42:17;1.73;;;1.00;;
66272;SDS011;58450;52.150;4.466;2023-07-20T04:44:46;1.80;;;0.90;;
66272;SDS011;58450;52.150;4.466;2023-07-20T04:47:13;1.10;;;0.88;;
66272;SDS011;58450;52.150;4.466;2023-07-20T04:49:41;1.27;;;0.93;;
66272;SDS011;58450;52.150;4.466;2023-07-20T04:52:09;1.30;;;0.90;;
66272;SDS011;58450;52.150;4.466;2023-07-20T04:54:36;0.82;;;0.80;;
66272;SDS011;58450;52.150;4.466;2023-07-20T04:57:11;1.10;;;0.85;;
66272;SDS011;58450;52.150;4.466;2023-07-20T04:59:39;0.90;;;0.80;;
66272;SDS011;58450;52.150;4.466;2023-07-20T05:02:07;1.10;;;0.90;;
66272;SDS011;58450;52.150;4.466;2023-07-20T05:04:34;1.88;;;0.90;;
66272;SDS011;58450;52.150;4.466;2023-07-20T05:07:02;1.73;;;1.02;;
66272;SDS011;58450;52.150;4.466;2023-07-20T05:09:30;1.05;;;0.90;;
66272;SDS011;58450;52.150;4.466;2023-07-20T05:11:57;1.83;;;0.88;;
66272;SDS011;58450;52.150;4.466;2023-07-20T05:14:26;1.92;;;1.10;;
66272;SDS011;58450;52.150;4.466;2023-07-20T05:16:54;1.50;;;1.00;;
66272;SDS011;58450;52.150;4.466;2023-07-20T05:19:22;1.23;;;0.90;;
66272;SDS011;58450;52.150;4.466;2023-07-20T05:21:51;1.30;;;0.90;;
66272;SDS011;58450;52.150;4.466;2023-07-20T05:24:19;1.25;;;0.73;;
66272;SDS011;58450;52.150;4.466;2023-07-20T05:26:47;1.35;;;1.00;;
66272;SDS011;58450;52.150;4.466;2023-07-20T05:29:15;1.52;;;0.90;;
66272;SDS011;58450;52.150;4.466;2023-07-20T05:31:44;1.67;;;0.77;;
66272;SDS011;58450;52.150;4.466;2023-07-20T05:34:11;2.75;;;1.02;;
66272;SDS011;58450;52.150;4.466;2023-07-20T05:36:39;1.65;;;0.85;;
66272;SDS011;58450;52.150;4.466;2023-07-20T05:39:07;1.30;;;0.70;;
66272;SDS011;58450;52.150;4.466;2023-07-20T05:41:34;1.45;;;0.80;;
66272;SDS011;58450;52.150;4.466;2023-07-20T05:44:02;1.45;;;0.80;;
66272;SDS011;58450;52.150;4.466;2023-07-20T05:46:30;0.98;;;0.70;;
66272;SDS011;58450;52.150;4.466;2023-07-20T05:48:59;1.67;;;0.80;;
66272;SDS011;58450;52.150;4.466;2023-07-20T05:51:27;1.23;;;0.73;;
66272;SDS011;58450;52.150;4.466;2023-07-20T05:53:55;1.30;;;0.68;;
66272;SDS011;58450;52.150;4.466;2023-07-20T05:56:22;1.98;;;0.70;;
66272;SDS011;58450;52.150;4.466;2023-07-20T05:58:50;1.13;;;0.93;;
66272;SDS011;58450;52.150;4.466;2023-07-20T06:01:18;1.52;;;0.82;;
66272;SDS011;58450;52.150;4.466;2023-07-20T06:03:45;1.05;;;0.70;;
66272;SDS011;58450;52.150;4.466;2023-07-20T06:06:15;0.60;;;0.60;;
66272;SDS011;58450;52.150;4.466;2023-07-20T06:08:42;1.48;;;0.70;;
66272;SDS011;58450;52.150;4.466;2023-07-20T06:11:10;1.52;;;0.80;;
66272;SDS011;58450;52.150;4.466;2023-07-20T06:13:38;1.45;;;0.70;;
66272;SDS011;58450;52.150;4.466;2023-07-20T06:16:05;1.38;;;0.93;;
66272;SDS011;58450;52.150;4.466;2023-07-20T06:18:33;1.48;;;0.80;;
66272;SDS011;58450;52.150;4.466;2023-07-20T06:21:01;2.05;;;0.90;;
66272;SDS011;58450;52.150;4.466;2023-07-20T06:23:30;2.67;;;0.88;;
66272;SDS011;58450;52.150;4.466;2023-07-20T06:25:57;1.33;;;0.73;;
66272;SDS011;58450;52.150;4.466;2023-07-20T06:28:25;1.30;;;0.80;;
66272;SDS011;58450;52.150;4.466;2023-07-20T06:30:58;1.60;;;0.75;;
66272;SDS011;58450;52.150;4.466;2023-07-20T06:33:27;1.45;;;0.70;;
66272;SDS011;58450;52.150;4.466;2023-07-20T06:35:55;1.65;;;0.77;;
66272;SDS011;58450;52.150;4.466;2023-07-20T06:38:23;1.13;;;0.80;;
66272;SDS011;58450;52.150;4.466;2023-07-20T06:40:53;0.70;;;0.60;;
66272;SDS011;58450;52.150;4.466;2023-07-20T06:43:20;1.02;;;0.80;;
66272;SDS011;58450;52.150;4.466;2023-07-20T06:45:50;1.35;;;0.75;;
66272;SDS011;58450;52.150;4.466;2023-07-20T06:48:19;2.17;;;0.80;;
66272;SDS011;58450;52.150;4.466;2023-07-20T06:50:48;0.60;;;0.60;;
66272;SDS011;58450;52.150;4.466;2023-07-20T06:53:15;0.88;;;0.60;;
66272;SDS011;58450;52.150;4.466;2023-07-20T06:55:43;0.60;;;0.50;;
66272;SDS011;58450;52.150;4.466;2023-07-20T06:58:12;2.17;;;0.75;;
66272;SDS011;58450;52.150;4.466;2023-07-20T07:00:40;2.45;;;0.65;;
66272;SDS011;58450;52.150;4.466;2023-07-20T07:03:08;1.83;;;0.55;;
66272;SDS011;58450;52.150;4.466;2023-07-20T07:05:36;1.23;;;0.70;;
66272;SDS011;58450;52.150;4.466;2023-07-20T07:08:04;2.47;;;0.85;;
66272;SDS011;58450;52.150;4.466;2023-07-20T07:10:32;0.60;;;0.52;;
66272;SDS011;58450;52.150;4.466;2023-07-20T07:13:02;1.30;;;0.80;;
66272;SDS011;58450;52.150;4.466;2023-07-20T07:15:32;1.27;;;0.65;;
66272;SDS011;58450;52.150;4.466;2023-07-20T07:18:01;3.88;;;1.10;;
66272;SDS011;58450;52.150;4.466;2023-07-20T07:20:29;2.28;;;0.82;;
66272;SDS011;58450;52.150;4.466;2023-07-20T07:22:57;3.10;;;0.90;;
66272;SDS011;58450;52.150;4.466;2023-07-20T07:25:24;4.00;;;1.20;;
66272;SDS011;58450;52.150;4.466;2023-07-20T07:27:52;4.10;;;1.45;;
66272;SDS011;58450;52.150;4.466;2023-07-20T07:30:21;3.67;;;0.93;;
66272;SDS011;58450;52.150;4.466;2023-07-20T07:32:50;2.45;;;0.90;;
66272;SDS011;58450;52.150;4.466;2023-07-20T07:35:18;2.75;;;1.00;;
66272;SDS011;58450;52.150;4.466;2023-07-20T07:37:45;3.28;;;1.15;;
66272;SDS011;58450;52.150;4.466;2023-07-20T07:40:13;1.42;;;0.90;;
66272;SDS011;58450;52.150;4.466;2023-07-20T07:42:41;2.25;;;0.60;;
66272;SDS011;58450;52.150;4.466;2023-07-20T07:45:09;0.90;;;0.60;;
66272;SDS011;58450;52.150;4.466;2023-07-20T07:47:37;1.48;;;0.70;;
66272;SDS011;58450;52.150;4.466;2023-07-20T07:50:06;0.75;;;0.70;;
66272;SDS011;58450;52.150;4.466;2023-07-20T07:52:36;1.77;;;0.65;;
66272;SDS011;58450;52.150;4.466;2023-07-20T07:55:04;2.10;;;0.60;;
66272;SDS011;58450;52.150;4.466;2023-07-20T07:57:33;1.38;;;0.70;;
66272;SDS011;58450;52.150;4.466;2023-07-20T08:00:00;1.35;;;0.80;;
66272;SDS011;58450;52.150;4.466;2023-07-20T08:02:29;0.52;;;0.52;;
66272;SDS011;58450;52.150;4.466;2023-07-20T08:04:57;1.13;;;0.52;;
66272;SDS011;58450;52.150;4.466;2023-07-20T08:07:28;1.70;;;0.57;;
66272;SDS011;58450;52.150;4.466;2023-07-20T08:09:55;2.20;;;0.80;;
66272;SDS011;58450;52.150;4.466;2023-07-20T08:12:23;0.98;;;0.60;;
66272;SDS011;58450;52.150;4.466;2023-07-20T08:14:51;1.35;;;0.60;;
66272;SDS011;58450;52.150;4.466;2023-07-20T08:17:19;1.25;;;0.68;;
66272;SDS011;58450;52.150;4.466;2023-07-20T08:19:46;0.60;;;0.50;;
66272;SDS011;58450;52.150;4.466;2023-07-20T08:22:14;0.70;;;0.50;;
66272;SDS011;58450;52.150;4.466;2023-07-20T08:24:43;1.20;;;0.70;;
66272;SDS011;58450;52.150;4.466;2023-07-20T08:27:11;1.13;;;0.70;;
66272;SDS011;58450;52.150;4.466;2023-07-20T08:29:39;0.90;;;0.73;;
66272;SDS011;58450;52.150;4.466;2023-07-20T08:32:06;0.75;;;0.52;;
66272;SDS011;58450;52.150;4.466;2023-07-20T08:34:34;1.35;;;0.43;;
66272;SDS011;58450;52.150;4.466;2023-07-20T08:37:02;0.60;;;0.60;;
66272;SDS011;58450;52.150;4.466;2023-07-20T08:39:30;1.30;;;0.70;;
66272;SDS011;58450;52.150;4.466;2023-07-20T08:42:00;0.80;;;0.60;;
66272;SDS011;58450;52.150;4.466;2023-07-20T08:44:32;1.15;;;0.60;;
66272;SDS011;58450;52.150;4.466;2023-07-20T08:47:00;0.82;;;0.50;;
66272;SDS011;58450;52.150;4.466;2023-07-20T08:49:29;1.10;;;0.60;;
66272;SDS011;58450;52.150;4.466;2023-07-20T08:51:58;1.33;;;0.55;;
66272;SDS011;58450;52.150;4.466;2023-07-20T08:54:27;0.93;;;0.50;;
66272;SDS011;58450;52.150;4.466;2023-07-20T08:57:01;0.85;;;0.50;;
66272;SDS011;58450;52.150;4.466;2023-07-20T08:59:31;1.90;;;0.50;;
66272;SDS011;58450;52.150;4.466;2023-07-20T09:02:00;3.58;;;0.60;;
66272;SDS011;58450;52.150;4.466;2023-07-20T09:04:29;1.63;;;0.60;;
66272;SDS011;58450;52.150;4.466;2023-07-20T09:06:57;1.30;;;0.60;;
66272;SDS011;58450;52.150;4.466;2023-07-20T09:09:25;0.65;;;0.40;;
66272;SDS011;58450;52.150;4.466;2023-07-20T09:11:52;0.85;;;0.40;;
66272;SDS011;58450;52.150;4.466;2023-07-20T09:14:21;1.20;;;0.52;;
66272;SDS011;58450;52.150;4.466;2023-07-20T09:16:52;0.40;;;0.40;;
66272;SDS011;58450;52.150;4.466;2023-07-20T09:19:21;0.40;;;0.40;;
66272;SDS011;58450;52.150;4.466;2023-07-20T09:21:49;0.40;;;0.30;;
66272;SDS011;58450;52.150;4.466;2023-07-20T09:24:18;0.30;;;0.30;;
66272;SDS011;58450;52.150;4.466;2023-07-20T09:26:47;1.02;;;0.50;;
66272;SDS011;58450;52.150;4.466;2023-07-20T09:29:17;0.95;;;0.45;;
66272;SDS011;58450;52.150;4.466;2023-07-20T09:31:59;0.35;;;0.35;;
66272;SDS011;58450;52.150;4.466;2023-07-20T09:34:28;2.95;;;0.68;;
66272;SDS011;58450;52.150;4.466;2023-07-20T09:36:57;0.95;;;0.55;;
66272;SDS011;58450;52.150;4.466;2023-07-20T09:39:26;0.63;;;0.40;;
66272;SDS011;58450;52.150;4.466;2023-07-20T09:41:54;1.30;;;0.47;;
66272;SDS011;58450;52.150;4.466;2023-07-20T09:44:21;0.50;;;0.50;;
66272;SDS011;58450;52.150;4.466;2023-07-20T09:46:49;0.73;;;0.43;;
66272;SDS011;58450;52.150;4.466;2023-07-20T09:49:19;1.45;;;0.40;;
66272;SDS011;58450;52.150;4.466;2023-07-20T09:51:47;0.60;;;0.40;;
66272;SDS011;58450;52.150;4.466;2023-07-20T09:54:16;1.38;;;0.50;;
66272;SDS011;58450;52.150;4.466;2023-07-20T09:56:47;0.93;;;0.40;;
66272;SDS011;58450;52.150;4.466;2023-07-20T09:59:17;1.75;;;0.52;;
66272;SDS011;58450;52.150;4.466;2023-07-20T10:01:45;0.50;;;0.40;;
66272;SDS011;58450;52.150;4.466;2023-07-20T10:04:16;0.77;;;0.40;;
66272;SDS011;58450;52.150;4.466;2023-07-20T10:06:48;0.85;;;0.40;;
66272;SDS011;58450;52.150;4.466;2023-07-20T10:09:21;0.90;;;0.40;;
66272;SDS011;58450;52.150;4.466;2023-07-20T10:11:52;2.03;;;0.60;;
66272;SDS011;58450;52.150;4.466;2023-07-20T10:14:22;0.80;;;0.40;;
66272;SDS011;58450;52.150;4.466;2023-07-20T10:16:51;0.50;;;0.32;;
66272;SDS011;58450;52.150;4.466;2023-07-20T10:19:27;0.95;;;0.43;;
66272;SDS011;58450;52.150;4.466;2023-07-20T10:22:07;1.08;;;0.47;;
66272;SDS011;58450;52.150;4.466;2023-07-20T10:24:45;0.50;;;0.30;;
66272;SDS011;58450;52.150;4.466;2023-07-20T10:27:14;1.60;;;0.50;;
66272;SDS011;58450;52.150;4.466;2023-07-20T10:29:41;0.63;;;0.50;;
66272;SDS011;58450;52.150;4.466;2023-07-20T10:32:10;1.58;;;0.52;;
66272;SDS011;58450;52.150;4.466;2023-07-20T10:34:40;0.88;;;0.50;;
66272;SDS011;58450;52.150;4.466;2023-07-20T10:37:08;0.75;;;0.50;;
66272;SDS011;58450;52.150;4.466;2023-07-20T10:39:36;1.02;;;0.43;;
66272;SDS011;58450;52.150;4.466;2023-07-20T10:42:06;1.02;;;0.50;;
66272;SDS011;58450;52.150;4.466;2023-07-20T10:44:36;0.80;;;0.47;;
66272;SDS011;58450;52.150;4.466;2023-07-20T10:47:08;0.50;;;0.43;;
66272;SDS011;58450;52.150;4.466;2023-07-20T10:52:36;0.40;;;0.30;;
66272;SDS011;58450;52.150;4.466;2023-07-20T10:55:10;1.27;;;0.40;;
66272;SDS011;58450;52.150;4.466;2023-07-20T10:57:38;0.50;;;0.40;;
66272;SDS011;58450;52.150;4.466;2023-07-20T11:00:07;1.40;;;0.50;;
66272;SDS011;58450;52.150;4.466;2023-07-20T11:02:45;0.95;;;0.40;;
66272;SDS011;58450;52.150;4.466;2023-07-20T11:05:35;0.65;;;0.40;;
66272;SDS011;58450;52.150;4.466;2023-07-20T11:08:06;1.40;;;0.45;;
66272;SDS011;58450;52.150;4.466;2023-07-20T11:10:38;0.80;;;0.40;;
66272;SDS011;58450;52.150;4.466;2023-07-20T11:13:16;1.13;;;0.45;;
66272;SDS011;58450;52.150;4.466;2023-07-20T11:16:01;2.15;;;0.52;;
66272;SDS011;58450;52.150;4.466;2023-07-20T11:18:33;2.17;;;0.50;;
66272;SDS011;58450;52.150;4.466;2023-07-20T11:21:08;1.45;;;0.60;;
66272;SDS011;58450;52.150;4.466;2023-07-20T11:23:38;0.55;;;0.40;;
66272;SDS011;58450;52.150;4.466;2023-07-20T11:26:07;6.55;;;0.88;;
66272;SDS011;58450;52.150;4.466;2023-07-20T11:28:35;4.13;;;1.05;;
66272;SDS011;58450;52.150;4.466;2023-07-20T11:31:03;0.50;;;0.45;;
66272;SDS011;58450;52.150;4.466;2023-07-20T11:33:31;1.13;;;0.55;;
66272;SDS011;58450;52.150;4.466;2023-07-20T11:35:58;0.70;;;0.40;;
66272;SDS011;58450;52.150;4.466;2023-07-20T11:38:27;0.80;;;0.40;;
66272;SDS011;58450;52.150;4.466;2023-07-20T11:40:55;0.50;;;0.50;;
66272;SDS011;58450;52.150;4.466;2023-07-20T11:43:24;0.40;;;0.40;;
66272;SDS011;58450;52.150;4.466;2023-07-20T11:45:52;1.08;;;0.40;;
66272;SDS011;58450;52.150;4.466;2023-07-20T11:48:19;0.75;;;0.43;;
66272;SDS011;58450;52.150;4.466;2023-07-20T11:50:47;1.25;;;0.43;;
66272;SDS011;58450;52.150;4.466;2023-07-20T11:53:15;0.63;;;0.50;;
66272;SDS011;58450;52.150;4.466;2023-07-20T11:55:45;0.57;;;0.40;;
66272;SDS011;58450;52.150;4.466;2023-07-20T11:58:14;0.20;;;0.20;;
66272;SDS011;58450;52.150;4.466;2023-07-20T12:00:43;2.22;;;0.75;;
66272;SDS011;58450;52.150;4.466;2023-07-20T12:03:12;0.65;;;0.40;;
66272;SDS011;58450;52.150;4.466;2023-07-20T12:05:39;0.40;;;0.30;;
66272;SDS011;58450;52.150;4.466;2023-07-20T12:08:07;0.75;;;0.40;;
66272;SDS011;58450;52.150;4.466;2023-07-20T12:10:38;0.52;;;0.50;;
66272;SDS011;58450;52.150;4.466;2023-07-20T12:13:11;1.17;;;0.50;;
66272;SDS011;58450;52.150;4.466;2023-07-20T12:15:38;0.98;;;0.40;;
66272;SDS011;58450;52.150;4.466;2023-07-20T12:18:06;1.23;;;0.73;;
66272;SDS011;58450;52.150;4.466;2023-07-20T12:20:35;0.55;;;0.40;;
66272;SDS011;58450;52.150;4.466;2023-07-20T12:23:05;1.15;;;0.55;;
66272;SDS011;58450;52.150;4.466;2023-07-20T12:28:06;0.30;;;0.30;;
66272;SDS011;58450;52.150;4.466;2023-07-20T12:30:37;0.40;;;0.30;;
66272;SDS011;58450;52.150;4.466;2023-07-20T12:33:06;1.40;;;0.47;;
66272;SDS011;58450;52.150;4.466;2023-07-20T12:35:34;1.08;;;0.40;;
66272;SDS011;58450;52.150;4.466;2023-07-20T12:38:02;0.57;;;0.43;;
66272;SDS011;58450;52.150;4.466;2023-07-20T12:40:30;0.98;;;0.40;;
66272;SDS011;58450;52.150;4.466;2023-07-20T12:42:58;1.25;;;0.40;;
66272;SDS011;58450;52.150;4.466;2023-07-20T12:45:26;1.52;;;0.45;;
66272;SDS011;58450;52.150;4.466;2023-07-20T12:47:55;0.70;;;0.50;;
66272;SDS011;58450;52.150;4.466;2023-07-20T12:50:23;0.63;;;0.22;;
66272;SDS011;58450;52.150;4.466;2023-07-20T12:52:50;0.68;;;0.40;;
66272;SDS011;58450;52.150;4.466;2023-07-20T12:55:19;0.38;;;0.25;;
66272;SDS011;58450;52.150;4.466;2023-07-20T12:57:46;2.42;;;0.30;;
66272;SDS011;58450;52.150;4.466;2023-07-20T13:00:14;0.43;;;0.30;;
66272;SDS011;58450;52.150;4.466;2023-07-20T13:02:43;1.75;;;0.40;;
66272;SDS011;58450;52.150;4.466;2023-07-20T13:05:12;0.93;;;0.40;;
66272;SDS011;58450;52.150;4.466;2023-07-20T13:07:40;1.45;;;0.30;;
66272;SDS011;58450;52.150;4.466;2023-07-20T13:10:09;2.10;;;0.70;;
66272;SDS011;58450;52.150;4.466;2023-07-20T13:12:38;0.82;;;0.50;;
66272;SDS011;58450;52.150;4.466;2023-07-20T13:15:06;1.58;;;0.40;;
66272;SDS011;58450;52.150;4.466;2023-07-20T13:17:36;1.05;;;0.40;;
66272;SDS011;58450;52.150;4.466;2023-07-20T13:20:06;0.68;;;0.30;;
66272;SDS011;58450;52.150;4.466;2023-07-20T13:22:38;1.08;;;0.40;;
66272;SDS011;58450;52.150;4.466;2023-07-20T13:25:07;0.50;;;0.30;;
66272;SDS011;58450;52.150;4.466;2023-07-20T13:27:36;0.40;;;0.30;;
66272;SDS011;58450;52.150;4.466;2023-07-20T13:30:05;1.00;;;0.35;;
66272;SDS011;58450;52.150;4.466;2023-07-20T13:32:35;0.40;;;0.30;;
66272;SDS011;58450;52.150;4.466;2023-07-20T13:35:04;0.30;;;0.30;;
66272;SDS011;58450;52.150;4.466;2023-07-20T13:37:32;0.68;;;0.40;;
66272;SDS011;58450;52.150;4.466;2023-07-20T13:40:01;0.90;;;0.30;;
66272;SDS011;58450;52.150;4.466;2023-07-20T13:42:31;0.80;;;0.38;;
66272;SDS011;58450;52.150;4.466;2023-07-20T13:44:58;0.70;;;0.30;;
66272;SDS011;58450;52.150;4.466;2023-07-20T13:47:26;0.65;;;0.30;;
66272;SDS011;58450;52.150;4.466;2023-07-20T13:49:55;0.40;;;0.30;;
66272;SDS011;58450;52.150;4.466;2023-07-20T13:52:22;0.28;;;0.28;;
66272;SDS011;58450;52.150;4.466;2023-07-20T13:54:50;0.32;;;0.30;;
66272;SDS011;58450;52.150;4.466;2023-07-20T13:57:19;1.15;;;0.40;;
66272;SDS011;58450;52.150;4.466;2023-07-20T13:59:47;0.32;;;0.30;;
66272;SDS011;58450;52.150;4.466;2023-07-20T14:02:14;0.60;;;0.40;;
66272;SDS011;58450;52.150;4.466;2023-07-20T14:04:42;0.60;;;0.50;;
66272;SDS011;58450;52.150;4.466;2023-07-20T14:07:09;0.82;;;0.47;;
66272;SDS011;58450;52.150;4.466;2023-07-20T14:09:39;0.40;;;0.30;;
66272;SDS011;58450;52.150;4.466;2023-07-20T14:12:06;0.40;;;0.40;;
66272;SDS011;58450;52.150;4.466;2023-07-20T14:14:38;0.68;;;0.47;;
66272;SDS011;58450;52.150;4.466;2023-07-20T14:17:06;0.38;;;0.38;;
66272;SDS011;58450;52.150;4.466;2023-07-20T14:19:36;0.63;;;0.50;;
66272;SDS011;58450;52.150;4.466;2023-07-20T14:22:05;0.57;;;0.40;;
66272;SDS011;58450;52.150;4.466;2023-07-20T14:24:33;0.75;;;0.50;;
66272;SDS011;58450;52.150;4.466;2023-07-20T14:27:00;1.00;;;0.52;;
66272;SDS011;58450;52.150;4.466;2023-07-20T14:29:28;0.40;;;0.40;;
66272;SDS011;58450;52.150;4.466;2023-07-20T14:31:59;0.90;;;0.50;;
66272;SDS011;58450;52.150;4.466;2023-07-20T14:34:27;0.63;;;0.40;;
66272;SDS011;58450;52.150;4.466;2023-07-20T14:36:55;0.63;;;0.40;;
66272;SDS011;58450;52.150;4.466;2023-07-20T14:39:25;0.95;;;0.50;;
66272;SDS011;58450;52.150;4.466;2023-07-20T14:41:53;0.77;;;0.40;;
66272;SDS011;58450;52.150;4.466;2023-07-20T14:44:21;0.68;;;0.40;;
66272;SDS011;58450;52.150;4.466;2023-07-20T14:46:48;0.65;;;0.30;;
66272;SDS011;58450;52.150;4.466;2023-07-20T14:49:17;0.90;;;0.40;;
66272;SDS011;58450;52.150;4.466;2023-07-20T14:51:45;0.60;;;0.40;;
66272;SDS011;58450;52.150;4.466;2023-07-20T14:54:13;1.52;;;0.47;;
66272;SDS011;58450;52.150;4.466;2023-07-20T14:56:42;0.98;;;0.50;;
66272;SDS011;58450;52.150;4.466;2023-07-20T14:59:18;0.63;;;0.52;;
66272;SDS011;58450;52.150;4.466;2023-07-20T15:01:46;3.13;;;0.50;;
66272;SDS011;58450;52.150;4.466;2023-07-20T15:04:14;0.73;;;0.45;;
66272;SDS011;58450;52.150;4.466;2023-07-20T15:06:43;0.88;;;0.50;;